메인 페이지
METAR-TAF:

METAR-TAF

공항 :

테헤란 메흐라바드 국제공항

테헤란, 이란

위도: 35-41N, 경도: 051-21E, 고도: 1204m

현재 날씨관측

예보는 8분 전, 19:00시(UTC)에 발표되었습니다.
14kt
온도 14°C
습도 47%
기압 1019 hPa
시정 10km 이상
고도 3500ft 상공 구름 조금
고도 4000ft 상공 구름 조금, 적란운.
고도 10000ft 상공 구름 보통

METAR: OIII 041900Z 27014KT 9999 FEW035 FEW040CB SCT100 14/03 Q1019 A3009 NOSIG

시각: 23:38 (19:08 UTC)

예보

예보는 1 시간 38분 전, 17:30시(UTC)에 발표되었습니다.
예보 대상 시간: 04일 18시부터 05일 24시까지 (UTC)
서북서8kt
시정: 7000m
고도 4000ft 상공 구름 보통
일시적
04일 18시부터 04일 21시까지 (UTC)
18kt, 순간 최대 풍속 28kt
시정: 5000m
고도 3000ft 상공 구름 조금, 적란운.
고도 3500ft 상공 구름 보통
고도 8000ft 상공 구름 많음
일시적
05일 07시부터 05일 15시까지 (UTC)
18kt

TAF: OIII 041730Z 0418/0524 29008KT 7000 SCT040 TEMPO 0418/0421 26018G28KT 5000 SHRA/TSRA FEW030CB SCT035 BKN080 TEMPO 0507/0515 28018KT

4,000개 이상의 공항 관측 자료 및 예보 (METAR 및 TAF 보고).

지도상에서 검색 가능한 기상관측소가 노란 점과 빨간 점으로 표시되어 있습니다.

기상관측소 명을 보려면 표시 위로 마우스를 이동하세요.

날씨 관측과 예보를 보려면 클릭하세요.

지도 변경 : 확대하려면 엑스 표시가 있는 녹색 버튼, 축소하려면 빼기 표시가 있는 녹색 버튼, 다음 페이지의 지도를 보려면 녹색 화살표를 클릭하세요.


METAR-TAF: